createdAt,value
2022-12-09T00:02:16.696Z,2.28
2022-12-09T00:07:18.075Z,2.30
2022-12-09T00:12:19.328Z,2.30
2022-12-09T00:17:20.548Z,2.24
2022-12-09T00:22:21.932Z,2.22
2022-12-09T00:27:23.194Z,2.18
2022-12-09T00:32:24.729Z,2.15
2022-12-09T00:37:25.959Z,2.16
2022-12-09T00:42:27.248Z,2.15
2022-12-09T00:47:28.493Z,2.17
2022-12-09T00:52:29.911Z,2.13
2022-12-09T00:57:31.176Z,2.14
2022-12-09T01:02:32.513Z,2.14
2022-12-09T01:07:33.961Z,2.15
2022-12-09T01:12:35.298Z,2.10
2022-12-09T01:17:36.469Z,2.09
2022-12-09T01:22:37.971Z,2.07
2022-12-09T01:27:39.197Z,2.05
2022-12-09T01:32:40.421Z,2.04
2022-12-09T01:37:41.671Z,2.04
2022-12-09T01:42:42.991Z,2.03
2022-12-09T01:47:44.513Z,2.00
2022-12-09T01:52:45.780Z,1.98
2022-12-09T01:57:47.246Z,1.96
2022-12-09T02:02:48.882Z,1.98
2022-12-09T02:07:50.212Z,2.00
2022-12-09T02:12:51.485Z,1.99
2022-12-09T02:17:52.722Z,1.97
2022-12-09T02:22:54.350Z,1.95
2022-12-09T02:27:55.594Z,1.97
2022-12-09T02:32:56.953Z,1.97
2022-12-09T02:37:58.340Z,1.97
2022-12-09T02:42:59.623Z,1.99
2022-12-09T02:48:01.434Z,1.97
2022-12-09T02:53:02.826Z,1.95
2022-12-09T02:58:03.991Z,1.97
2022-12-09T03:03:05.593Z,1.97
2022-12-09T03:08:07.117Z,1.97
2022-12-09T03:13:08.372Z,1.97
2022-12-09T03:18:09.660Z,1.95
2022-12-09T03:23:11.308Z,1.89
2022-12-09T03:28:12.822Z,1.76
2022-12-09T03:33:14.345Z,1.59
2022-12-09T03:38:16.046Z,1.49
2022-12-09T03:43:17.476Z,1.34
2022-12-09T03:48:19.083Z,1.25
2022-12-09T03:53:20.379Z,1.16
2022-12-09T03:58:21.935Z,1.05
2022-12-09T04:03:23.456Z,0.93
2022-12-09T04:08:24.876Z,0.86
2022-12-09T04:13:26.216Z,0.82
2022-12-09T04:18:27.507Z,0.74
2022-12-09T04:23:29.227Z,0.69
2022-12-09T04:28:30.660Z,0.68
2022-12-09T04:33:32.687Z,0.71
2022-12-09T04:38:33.907Z,0.73
2022-12-09T04:43:35.242Z,0.76
2022-12-09T04:48:36.653Z,0.69
2022-12-09T04:53:38.186Z,0.54
2022-12-09T04:58:39.426Z,0.47
2022-12-09T05:03:41.233Z,0.41
2022-12-09T05:08:42.763Z,0.40
2022-12-09T05:13:44.322Z,0.43
2022-12-09T05:18:45.765Z,0.39
2022-12-09T05:23:47.271Z,0.31
2022-12-09T05:28:48.755Z,0.26
2022-12-09T05:33:50.459Z,0.22
2022-12-09T05:38:52.024Z,0.22
2022-12-09T05:43:53.339Z,0.22
2022-12-09T05:48:54.914Z,0.14
2022-12-09T05:53:56.696Z,0.09
2022-12-09T05:58:58.312Z,0.10
2022-12-09T06:03:59.773Z,0.28
2022-12-09T06:09:01.470Z,0.45
2022-12-09T06:14:03.009Z,0.53
2022-12-09T06:19:04.390Z,0.59
2022-12-09T06:24:05.694Z,0.49
2022-12-09T06:29:07.073Z,0.36
2022-12-09T06:34:08.396Z,0.21
2022-12-09T06:39:11.238Z,0.08
2022-12-09T06:44:15.822Z,0.01
2022-12-09T06:49:23.229Z,0.05
2022-12-09T06:54:24.934Z,0.08
2022-12-09T06:59:26.269Z,0.11
2022-12-09T07:04:28.192Z,0.18
2022-12-09T07:09:29.641Z,0.25
2022-12-09T07:14:31.458Z,0.42
2022-12-09T07:19:33.140Z,0.61
2022-12-09T07:24:34.618Z,0.75
2022-12-09T07:29:35.989Z,0.80
2022-12-09T07:34:37.261Z,0.89
2022-12-09T07:39:38.857Z,0.96
2022-12-09T07:44:40.560Z,1.03
2022-12-09T07:49:42.202Z,1.12
2022-12-09T07:54:43.690Z,1.19
2022-12-09T07:59:45.207Z,1.24
2022-12-09T08:04:46.881Z,1.26
2022-12-09T08:09:48.842Z,1.29
2022-12-09T08:14:50.124Z,1.34
2022-12-09T08:19:52.321Z,1.42
2022-12-09T08:24:53.785Z,1.47
2022-12-09T08:29:55.084Z,1.56
2022-12-09T08:34:56.922Z,1.65
2022-12-09T08:39:58.948Z,1.72
2022-12-09T08:45:02.312Z,1.79
2022-12-09T08:50:05.007Z,1.82
2022-12-09T08:55:06.415Z,1.85
2022-12-09T09:00:08.370Z,1.91
2022-12-09T09:05:10.349Z,1.92
2022-12-09T09:10:12.159Z,1.97
2022-12-09T09:15:14.546Z,1.99
2022-12-09T09:20:16.846Z,2.06
2022-12-09T09:25:18.376Z,2.15
2022-12-09T09:30:19.781Z,2.19
2022-12-09T09:35:21.465Z,2.20
2022-12-09T09:40:23.264Z,2.32
2022-12-09T09:45:24.881Z,2.44
2022-12-09T09:50:27.677Z,2.53
2022-12-09T09:55:29.170Z,2.61
2022-12-09T10:00:30.843Z,2.64
2022-12-09T10:05:32.987Z,2.70
2022-12-09T10:10:34.900Z,2.74
2022-12-09T10:15:36.769Z,2.86
2022-12-09T10:20:38.454Z,2.94
2022-12-09T10:25:40.145Z,3.06
2022-12-09T10:30:44.686Z,3.08
2022-12-09T10:35:46.813Z,3.12
2022-12-09T10:40:53.008Z,3.13
2022-12-09T10:46:17.308Z,3.13
2022-12-09T10:51:15.821Z,3.24
2022-12-09T10:56:17.356Z,3.38
2022-12-09T11:01:19.209Z,3.55
2022-12-09T11:06:20.691Z,3.76
2022-12-09T11:11:22.705Z,4.69
2022-12-09T11:16:24.564Z,5.27
2022-12-09T11:21:26.111Z,5.55
2022-12-09T11:26:27.832Z,5.46
2022-12-09T11:31:31.853Z,5.49
2022-12-09T11:36:37.152Z,5.63
2022-12-09T11:41:58.468Z,5.43
2022-12-09T11:46:59.729Z,4.91
2022-12-09T11:52:00.967Z,4.82
2022-12-09T11:57:02.106Z,4.91
2022-12-09T12:02:05.805Z,4.36
2022-12-09T12:07:07.040Z,4.04
2022-12-09T12:12:08.366Z,3.83
2022-12-09T12:17:09.574Z,3.62
2022-12-09T12:22:10.821Z,3.51
2022-12-09T12:27:12.011Z,3.49
2022-12-09T12:32:13.142Z,3.60
2022-12-09T12:37:14.539Z,3.99
2022-12-09T12:42:15.773Z,4.17
2022-12-09T12:47:16.926Z,4.01
2022-12-09T12:52:47.478Z,4.32
2022-12-09T12:57:39.215Z,4.61
2022-12-09T13:02:40.452Z,4.50
2022-12-09T13:07:41.737Z,3.98
2022-12-09T13:12:55.434Z,3.75
2022-12-09T13:17:56.595Z,3.64
2022-12-09T13:22:57.769Z,3.54
2022-12-09T13:27:58.984Z,3.42
2022-12-09T13:33:00.220Z,3.42
2022-12-09T13:38:01.509Z,3.60
2022-12-09T13:43:02.622Z,4.06
2022-12-09T13:48:03.867Z,4.29
2022-12-09T13:53:05.037Z,4.28
2022-12-09T13:58:06.183Z,4.07
2022-12-09T14:03:07.464Z,4.10
2022-12-09T14:08:08.795Z,4.09
2022-12-09T14:13:10.029Z,3.97
2022-12-09T14:18:11.241Z,3.86
2022-12-09T14:23:12.523Z,3.87
2022-12-09T14:28:13.769Z,3.69
2022-12-09T14:33:14.923Z,3.54
2022-12-09T14:38:16.320Z,3.27
2022-12-09T14:43:17.516Z,3.10
2022-12-09T14:48:18.682Z,3.00
2022-12-09T14:53:19.842Z,2.88
2022-12-09T14:58:21.067Z,2.76
2022-12-09T15:03:45.192Z,2.58
2022-12-09T15:08:43.395Z,2.43
2022-12-09T15:13:44.547Z,2.46
2022-12-09T15:18:45.810Z,2.54
2022-12-09T15:23:46.990Z,2.61
2022-12-09T15:28:48.132Z,2.59
2022-12-09T15:33:49.543Z,2.48
2022-12-09T15:38:50.703Z,2.30
2022-12-09T15:43:55.058Z,2.10
2022-12-09T15:48:56.555Z,1.96
2022-12-09T15:53:57.731Z,1.83
2022-12-09T15:58:58.954Z,1.73
2022-12-09T16:04:00.195Z,1.62
2022-12-09T16:09:01.336Z,1.51
2022-12-09T16:14:02.465Z,1.40
2022-12-09T16:19:03.713Z,1.24
2022-12-09T16:24:04.854Z,1.17
2022-12-09T16:29:06.066Z,1.05
2022-12-09T16:34:07.194Z,0.95
2022-12-09T16:39:08.396Z,0.84
2022-12-09T16:44:09.539Z,0.78
2022-12-09T16:49:10.789Z,0.71
2022-12-09T16:54:17.958Z,0.65
2022-12-09T16:59:21.068Z,0.50
2022-12-09T17:04:22.215Z,0.39
2022-12-09T17:09:23.420Z,0.33
2022-12-09T17:14:24.588Z,0.24
2022-12-09T17:19:25.782Z,0.13
2022-12-09T17:24:26.995Z,0.03
2022-12-09T17:29:28.203Z,-0.05
2022-12-09T17:34:29.368Z,-0.03
2022-12-09T17:39:30.566Z,-0.12
2022-12-09T17:44:31.877Z,-0.18
2022-12-09T17:49:33.050Z,-0.22
2022-12-09T17:54:34.253Z,-0.37
2022-12-09T17:59:35.414Z,-0.43
2022-12-09T18:04:36.546Z,-0.45
2022-12-09T18:09:37.767Z,-0.43
2022-12-09T18:14:38.895Z,-0.39
2022-12-09T18:19:40.078Z,-0.33
2022-12-09T18:24:41.275Z,-0.31
2022-12-09T18:29:42.462Z,-0.36
2022-12-09T18:34:43.654Z,-0.36
2022-12-09T18:39:44.843Z,-0.39
2022-12-09T18:44:46.046Z,-0.41
2022-12-09T18:49:47.172Z,-0.43
2022-12-09T18:54:48.457Z,-0.48
2022-12-09T18:59:50.366Z,-0.53
2022-12-09T19:04:51.578Z,-0.53
2022-12-09T19:09:52.740Z,-0.53
2022-12-09T19:14:53.951Z,-0.59
2022-12-09T19:19:55.138Z,-0.60
2022-12-09T19:24:56.322Z,-0.60
2022-12-09T19:29:57.495Z,-0.65
2022-12-09T19:34:58.692Z,-0.66
2022-12-09T19:39:59.916Z,-0.68
2022-12-09T19:45:02.950Z,-0.70
2022-12-09T19:50:06.141Z,-0.74
2022-12-09T19:55:08.317Z,-0.75
2022-12-09T20:00:09.850Z,-0.80
2022-12-09T20:05:11.258Z,-0.88
2022-12-09T20:10:12.507Z,-0.78
2022-12-09T20:15:13.650Z,-0.73
2022-12-09T20:20:14.778Z,-0.64
2022-12-09T20:25:15.965Z,-0.59
2022-12-09T20:30:17.811Z,-0.58
2022-12-09T20:35:18.971Z,-0.58
2022-12-09T20:40:20.114Z,-0.44
2022-12-09T20:45:21.264Z,-0.42
2022-12-09T20:50:22.483Z,-0.36
2022-12-09T20:55:23.672Z,-0.32
2022-12-09T21:00:24.882Z,-0.41
2022-12-09T21:05:26.071Z,-0.52
2022-12-09T21:10:27.316Z,-0.51
2022-12-09T21:15:28.495Z,-0.58
2022-12-09T21:20:29.642Z,-0.64
2022-12-09T21:25:30.885Z,-0.74
2022-12-09T21:30:32.074Z,-0.75
2022-12-09T21:35:33.713Z,-0.73
2022-12-09T21:40:34.839Z,-0.78
2022-12-09T21:45:36.043Z,-0.91
2022-12-09T21:50:37.211Z,-1.00
2022-12-09T21:55:38.375Z,-1.12
2022-12-09T22:00:39.540Z,-1.22
2022-12-09T22:05:40.731Z,-1.31
2022-12-09T22:10:41.976Z,-1.38
2022-12-09T22:15:43.176Z,-1.49
2022-12-09T22:21:15.973Z,-1.55
2022-12-09T22:26:05.983Z,-1.56
2022-12-09T22:31:07.219Z,-1.64
2022-12-09T22:36:08.469Z,-1.69
2022-12-09T22:41:09.698Z,-2.42
2022-12-09T22:46:11.011Z,-1.83
2022-12-09T22:51:12.184Z,-1.88
2022-12-09T22:56:13.358Z,-1.84
2022-12-09T23:01:14.766Z,-1.84
2022-12-09T23:06:15.922Z,-1.90
2022-12-09T23:11:17.163Z,-1.85
2022-12-09T23:16:18.329Z,-1.82
2022-12-09T23:21:19.525Z,-1.78
2022-12-09T23:26:20.756Z,-1.72
2022-12-09T23:31:22.855Z,-1.65
2022-12-09T23:36:24.123Z,-1.59
2022-12-09T23:41:25.275Z,-1.58
2022-12-09T23:46:26.593Z,-1.50
2022-12-09T23:51:27.888Z,-1.52
2022-12-09T23:56:29.062Z,-1.65
